< < Back
Terminal Aerodrome Forecast


Current Version              Previous Versions:   1  2  3  4  5  6  7  8  9  

Terminal Aerodrome Forecast

982
FTUS44 KHUN 270520
TAFHSV
TAF
KHSV 270520Z 2706/2806 36011KT P6SM BKN020 OVC025
     FM271600 02011KT P6SM FEW025 SCT250
     FM272200 03008KT P6SM OVC100=



Latest METAR

252
SAUS80 KWBC 270600 RRB
MTRHSV
METAR KHSV 270553Z 36011KT 10SM OVC022 01/M04 A3029 RMK AO2 SLP260 4/003
LAST T00061044 10033 20006 400671022 51023


USA.gov is the U.S. government's official web portal to all federal, state and local government web resources and services.